sensor_id;sensor_type;location;lat;lon;timestamp;P1;durP1;ratioP1;P2;durP2;ratioP2
80217;SDS011;69533;37.974;23.708;2023-05-10T00:02:06;4.35;;;3.20;;
80217;SDS011;69533;37.974;23.708;2023-05-10T00:04:32;4.82;;;2.92;;
80217;SDS011;69533;37.974;23.708;2023-05-10T00:06:58;5.03;;;3.42;;
80217;SDS011;69533;37.974;23.708;2023-05-10T00:09:24;3.95;;;3.05;;
80217;SDS011;69533;37.974;23.708;2023-05-10T00:11:49;3.88;;;3.17;;
80217;SDS011;69533;37.974;23.708;2023-05-10T00:14:15;5.00;;;3.20;;
80217;SDS011;69533;37.974;23.708;2023-05-10T00:16:42;4.65;;;3.33;;
80217;SDS011;69533;37.974;23.708;2023-05-10T00:19:07;3.80;;;3.17;;
80217;SDS011;69533;37.974;23.708;2023-05-10T00:21:33;5.97;;;3.22;;
80217;SDS011;69533;37.974;23.708;2023-05-10T00:23:59;4.85;;;3.28;;
80217;SDS011;69533;37.974;23.708;2023-05-10T00:26:25;4.00;;;2.97;;
80217;SDS011;69533;37.974;23.708;2023-05-10T00:28:50;4.80;;;3.35;;
80217;SDS011;69533;37.974;23.708;2023-05-10T00:31:16;4.05;;;3.42;;
80217;SDS011;69533;37.974;23.708;2023-05-10T00:33:42;5.35;;;3.70;;
80217;SDS011;69533;37.974;23.708;2023-05-10T00:36:08;4.30;;;3.17;;
80217;SDS011;69533;37.974;23.708;2023-05-10T00:38:33;4.78;;;3.40;;
80217;SDS011;69533;37.974;23.708;2023-05-10T00:40:59;6.28;;;3.22;;
80217;SDS011;69533;37.974;23.708;2023-05-10T00:43:25;6.22;;;3.80;;
80217;SDS011;69533;37.974;23.708;2023-05-10T00:45:51;4.47;;;3.25;;
80217;SDS011;69533;37.974;23.708;2023-05-10T00:48:17;4.95;;;3.20;;
80217;SDS011;69533;37.974;23.708;2023-05-10T00:50:43;4.65;;;3.28;;
80217;SDS011;69533;37.974;23.708;2023-05-10T00:53:10;4.93;;;2.95;;
80217;SDS011;69533;37.974;23.708;2023-05-10T00:55:36;4.55;;;3.30;;
80217;SDS011;69533;37.974;23.708;2023-05-10T00:58:02;5.55;;;3.10;;
80217;SDS011;69533;37.974;23.708;2023-05-10T01:00:28;4.20;;;3.20;;
80217;SDS011;69533;37.974;23.708;2023-05-10T01:02:54;4.25;;;3.00;;
80217;SDS011;69533;37.974;23.708;2023-05-10T01:05:20;4.85;;;3.20;;
80217;SDS011;69533;37.974;23.708;2023-05-10T01:07:46;4.32;;;2.78;;
80217;SDS011;69533;37.974;23.708;2023-05-10T01:10:13;2.95;;;2.30;;
80217;SDS011;69533;37.974;23.708;2023-05-10T01:12:40;4.97;;;2.78;;
80217;SDS011;69533;37.974;23.708;2023-05-10T01:15:09;3.85;;;2.50;;
80217;SDS011;69533;37.974;23.708;2023-05-10T01:17:36;5.70;;;3.15;;
80217;SDS011;69533;37.974;23.708;2023-05-10T01:20:04;5.68;;;2.50;;
80217;SDS011;69533;37.974;23.708;2023-05-10T01:22:40;4.53;;;3.08;;
80217;SDS011;69533;37.974;23.708;2023-05-10T01:39:29;5.05;;;2.63;;
80217;SDS011;69533;37.974;23.708;2023-05-10T01:42:11;5.03;;;2.60;;
80217;SDS011;69533;37.974;23.708;2023-05-10T01:47:44;3.80;;;2.30;;
80217;SDS011;69533;37.974;23.708;2023-05-10T01:50:17;5.20;;;2.55;;
80217;SDS011;69533;37.974;23.708;2023-05-10T01:52:50;4.05;;;2.53;;
80217;SDS011;69533;37.974;23.708;2023-05-10T01:55:20;3.80;;;2.30;;
80217;SDS011;69533;37.974;23.708;2023-05-10T01:57:48;3.58;;;2.17;;
80217;SDS011;69533;37.974;23.708;2023-05-10T02:00:21;7.15;;;2.47;;
80217;SDS011;69533;37.974;23.708;2023-05-10T02:02:48;5.07;;;2.22;;
80217;SDS011;69533;37.974;23.708;2023-05-10T02:05:15;3.63;;;2.53;;
80217;SDS011;69533;37.974;23.708;2023-05-10T02:07:42;5.53;;;1.92;;
80217;SDS011;69533;37.974;23.708;2023-05-10T02:10:09;5.45;;;2.13;;
80217;SDS011;69533;37.974;23.708;2023-05-10T02:12:37;4.38;;;1.90;;
80217;SDS011;69533;37.974;23.708;2023-05-10T02:15:06;3.20;;;2.05;;
80217;SDS011;69533;37.974;23.708;2023-05-10T02:17:34;4.00;;;2.10;;
80217;SDS011;69533;37.974;23.708;2023-05-10T02:20:02;6.88;;;2.08;;
80217;SDS011;69533;37.974;23.708;2023-05-10T02:22:29;3.03;;;1.88;;
80217;SDS011;69533;37.974;23.708;2023-05-10T02:24:57;2.80;;;2.03;;
80217;SDS011;69533;37.974;23.708;2023-05-10T02:27:24;4.55;;;2.03;;
80217;SDS011;69533;37.974;23.708;2023-05-10T02:29:52;4.40;;;1.90;;
80217;SDS011;69533;37.974;23.708;2023-05-10T02:32:19;3.92;;;2.47;;
80217;SDS011;69533;37.974;23.708;2023-05-10T02:34:47;2.97;;;2.05;;
80217;SDS011;69533;37.974;23.708;2023-05-10T02:37:16;5.45;;;2.10;;
80217;SDS011;69533;37.974;23.708;2023-05-10T02:39:46;5.88;;;2.03;;
80217;SDS011;69533;37.974;23.708;2023-05-10T02:42:15;6.00;;;2.10;;
80217;SDS011;69533;37.974;23.708;2023-05-10T02:44:44;3.45;;;1.80;;
80217;SDS011;69533;37.974;23.708;2023-05-10T02:47:12;4.28;;;1.92;;
80217;SDS011;69533;37.974;23.708;2023-05-10T02:49:38;5.22;;;1.88;;
80217;SDS011;69533;37.974;23.708;2023-05-10T02:52:05;5.65;;;2.03;;
80217;SDS011;69533;37.974;23.708;2023-05-10T02:54:34;3.15;;;1.73;;
80217;SDS011;69533;37.974;23.708;2023-05-10T02:57:08;3.50;;;1.90;;
80217;SDS011;69533;37.974;23.708;2023-05-10T02:59:40;3.72;;;2.03;;
80217;SDS011;69533;37.974;23.708;2023-05-10T03:02:08;4.45;;;2.22;;
80217;SDS011;69533;37.974;23.708;2023-05-10T03:04:35;4.65;;;1.73;;
80217;SDS011;69533;37.974;23.708;2023-05-10T03:07:01;5.22;;;2.05;;
80217;SDS011;69533;37.974;23.708;2023-05-10T03:09:27;5.75;;;2.30;;
80217;SDS011;69533;37.974;23.708;2023-05-10T03:17:52;5.00;;;1.90;;
80217;SDS011;69533;37.974;23.708;2023-05-10T03:20:41;3.40;;;1.70;;
80217;SDS011;69533;37.974;23.708;2023-05-10T03:25:41;3.72;;;1.70;;
80217;SDS011;69533;37.974;23.708;2023-05-10T03:28:08;3.72;;;1.98;;
80217;SDS011;69533;37.974;23.708;2023-05-10T03:30:34;4.47;;;1.65;;
80217;SDS011;69533;37.974;23.708;2023-05-10T03:33:05;3.95;;;1.85;;
80217;SDS011;69533;37.974;23.708;2023-05-10T03:35:31;4.85;;;1.90;;
80217;SDS011;69533;37.974;23.708;2023-05-10T03:37:57;4.80;;;1.77;;
80217;SDS011;69533;37.974;23.708;2023-05-10T03:40:23;4.07;;;2.00;;
80217;SDS011;69533;37.974;23.708;2023-05-10T03:42:49;4.32;;;2.38;;
80217;SDS011;69533;37.974;23.708;2023-05-10T03:45:15;3.72;;;1.80;;
80217;SDS011;69533;37.974;23.708;2023-05-10T03:47:41;3.92;;;1.50;;
80217;SDS011;69533;37.974;23.708;2023-05-10T03:50:06;3.60;;;1.70;;
80217;SDS011;69533;37.974;23.708;2023-05-10T03:52:33;2.92;;;1.83;;
80217;SDS011;69533;37.974;23.708;2023-05-10T03:54:58;3.70;;;2.13;;
80217;SDS011;69533;37.974;23.708;2023-05-10T03:57:24;3.25;;;1.60;;
80217;SDS011;69533;37.974;23.708;2023-05-10T03:59:50;4.78;;;1.90;;
80217;SDS011;69533;37.974;23.708;2023-05-10T04:02:15;4.72;;;2.00;;
80217;SDS011;69533;37.974;23.708;2023-05-10T04:04:41;3.20;;;1.60;;
80217;SDS011;69533;37.974;23.708;2023-05-10T04:07:07;2.85;;;1.70;;
80217;SDS011;69533;37.974;23.708;2023-05-10T04:09:32;2.17;;;1.83;;
80217;SDS011;69533;37.974;23.708;2023-05-10T04:11:58;3.58;;;1.75;;
80217;SDS011;69533;37.974;23.708;2023-05-10T04:14:27;3.28;;;1.58;;
80217;SDS011;69533;37.974;23.708;2023-05-10T04:16:52;4.38;;;1.90;;
80217;SDS011;69533;37.974;23.708;2023-05-10T04:19:18;4.93;;;2.30;;
80217;SDS011;69533;37.974;23.708;2023-05-10T04:21:44;5.35;;;2.35;;
80217;SDS011;69533;37.974;23.708;2023-05-10T04:24:10;7.32;;;2.05;;
80217;SDS011;69533;37.974;23.708;2023-05-10T04:26:35;3.53;;;2.17;;
80217;SDS011;69533;37.974;23.708;2023-05-10T04:29:01;9.07;;;2.88;;
80217;SDS011;69533;37.974;23.708;2023-05-10T04:31:27;7.00;;;2.00;;
80217;SDS011;69533;37.974;23.708;2023-05-10T04:33:53;6.05;;;2.25;;
80217;SDS011;69533;37.974;23.708;2023-05-10T04:36:18;7.60;;;1.92;;
80217;SDS011;69533;37.974;23.708;2023-05-10T04:38:44;12.45;;;2.40;;
80217;SDS011;69533;37.974;23.708;2023-05-10T04:41:10;6.82;;;2.75;;
80217;SDS011;69533;37.974;23.708;2023-05-10T04:43:36;3.65;;;2.25;;
80217;SDS011;69533;37.974;23.708;2023-05-10T04:46:03;3.75;;;1.90;;
80217;SDS011;69533;37.974;23.708;2023-05-10T04:48:29;3.45;;;1.90;;
80217;SDS011;69533;37.974;23.708;2023-05-10T04:50:55;4.88;;;2.13;;
80217;SDS011;69533;37.974;23.708;2023-05-10T04:53:21;7.57;;;2.25;;
80217;SDS011;69533;37.974;23.708;2023-05-10T04:55:47;4.95;;;1.73;;
80217;SDS011;69533;37.974;23.708;2023-05-10T04:58:13;8.23;;;2.20;;
80217;SDS011;69533;37.974;23.708;2023-05-10T05:00:39;7.90;;;2.08;;
80217;SDS011;69533;37.974;23.708;2023-05-10T05:03:05;2.88;;;1.73;;
80217;SDS011;69533;37.974;23.708;2023-05-10T05:05:31;6.78;;;2.33;;
80217;SDS011;69533;37.974;23.708;2023-05-10T05:07:56;5.53;;;1.90;;
80217;SDS011;69533;37.974;23.708;2023-05-10T05:10:22;5.47;;;2.00;;
80217;SDS011;69533;37.974;23.708;2023-05-10T05:12:48;4.00;;;2.20;;
80217;SDS011;69533;37.974;23.708;2023-05-10T05:15:13;7.72;;;2.25;;
80217;SDS011;69533;37.974;23.708;2023-05-10T05:17:41;3.97;;;1.63;;
80217;SDS011;69533;37.974;23.708;2023-05-10T05:20:07;4.40;;;2.03;;
80217;SDS011;69533;37.974;23.708;2023-05-10T05:22:35;5.15;;;2.00;;
80217;SDS011;69533;37.974;23.708;2023-05-10T05:25:01;5.03;;;1.63;;
80217;SDS011;69533;37.974;23.708;2023-05-10T05:27:28;3.22;;;1.80;;
80217;SDS011;69533;37.974;23.708;2023-05-10T05:29:57;6.32;;;2.20;;
80217;SDS011;69533;37.974;23.708;2023-05-10T05:32:24;4.68;;;1.70;;
80217;SDS011;69533;37.974;23.708;2023-05-10T05:34:50;2.10;;;1.63;;
80217;SDS011;69533;37.974;23.708;2023-05-10T05:37:19;2.78;;;1.70;;
80217;SDS011;69533;37.974;23.708;2023-05-10T05:39:46;4.20;;;1.67;;
80217;SDS011;69533;37.974;23.708;2023-05-10T05:42:12;4.20;;;1.80;;
80217;SDS011;69533;37.974;23.708;2023-05-10T05:44:39;4.10;;;1.98;;
80217;SDS011;69533;37.974;23.708;2023-05-10T05:47:05;5.40;;;1.95;;
80217;SDS011;69533;37.974;23.708;2023-05-10T05:49:31;3.28;;;1.52;;
80217;SDS011;69533;37.974;23.708;2023-05-10T05:52:01;2.40;;;1.55;;
80217;SDS011;69533;37.974;23.708;2023-05-10T05:54:28;4.13;;;1.67;;
80217;SDS011;69533;37.974;23.708;2023-05-10T05:56:55;2.22;;;1.45;;
80217;SDS011;69533;37.974;23.708;2023-05-10T05:59:25;2.58;;;1.80;;
80217;SDS011;69533;37.974;23.708;2023-05-10T06:01:51;3.40;;;1.83;;
80217;SDS011;69533;37.974;23.708;2023-05-10T06:04:17;3.28;;;1.50;;
80217;SDS011;69533;37.974;23.708;2023-05-10T06:06:43;4.72;;;2.03;;
80217;SDS011;69533;37.974;23.708;2023-05-10T06:09:09;2.53;;;1.65;;
80217;SDS011;69533;37.974;23.708;2023-05-10T06:11:35;2.72;;;1.60;;
80217;SDS011;69533;37.974;23.708;2023-05-10T06:14:01;2.67;;;1.67;;
80217;SDS011;69533;37.974;23.708;2023-05-10T06:16:29;2.95;;;1.60;;
80217;SDS011;69533;37.974;23.708;2023-05-10T06:18:55;4.85;;;1.70;;
80217;SDS011;69533;37.974;23.708;2023-05-10T06:21:21;3.75;;;2.08;;
80217;SDS011;69533;37.974;23.708;2023-05-10T06:23:47;5.82;;;1.92;;
80217;SDS011;69533;37.974;23.708;2023-05-10T06:26:14;4.15;;;1.70;;
80217;SDS011;69533;37.974;23.708;2023-05-10T06:28:40;3.70;;;1.65;;
80217;SDS011;69533;37.974;23.708;2023-05-10T06:31:06;4.03;;;1.80;;
80217;SDS011;69533;37.974;23.708;2023-05-10T06:33:32;3.40;;;1.77;;
80217;SDS011;69533;37.974;23.708;2023-05-10T06:35:58;5.38;;;1.70;;
80217;SDS011;69533;37.974;23.708;2023-05-10T06:38:24;4.72;;;2.28;;
80217;SDS011;69533;37.974;23.708;2023-05-10T06:40:49;4.20;;;1.50;;
80217;SDS011;69533;37.974;23.708;2023-05-10T06:43:15;2.95;;;2.00;;
80217;SDS011;69533;37.974;23.708;2023-05-10T06:45:41;3.25;;;1.52;;
80217;SDS011;69533;37.974;23.708;2023-05-10T06:48:07;5.38;;;1.95;;
80217;SDS011;69533;37.974;23.708;2023-05-10T06:50:33;3.90;;;1.52;;
80217;SDS011;69533;37.974;23.708;2023-05-10T06:52:59;1.77;;;1.30;;
80217;SDS011;69533;37.974;23.708;2023-05-10T06:55:25;3.42;;;1.77;;
80217;SDS011;69533;37.974;23.708;2023-05-10T06:57:51;4.18;;;1.50;;
80217;SDS011;69533;37.974;23.708;2023-05-10T07:00:18;2.60;;;1.80;;
80217;SDS011;69533;37.974;23.708;2023-05-10T07:02:44;2.95;;;1.63;;
80217;SDS011;69533;37.974;23.708;2023-05-10T07:05:10;2.70;;;1.65;;
80217;SDS011;69533;37.974;23.708;2023-05-10T07:07:37;2.38;;;1.50;;
80217;SDS011;69533;37.974;23.708;2023-05-10T07:10:03;2.88;;;1.60;;
80217;SDS011;69533;37.974;23.708;2023-05-10T07:12:29;2.97;;;1.60;;
80217;SDS011;69533;37.974;23.708;2023-05-10T07:14:55;4.55;;;1.65;;
80217;SDS011;69533;37.974;23.708;2023-05-10T07:17:21;3.17;;;1.63;;
80217;SDS011;69533;37.974;23.708;2023-05-10T07:19:46;3.72;;;1.90;;
80217;SDS011;69533;37.974;23.708;2023-05-10T07:22:12;4.47;;;1.80;;
80217;SDS011;69533;37.974;23.708;2023-05-10T07:24:38;5.53;;;1.73;;
80217;SDS011;69533;37.974;23.708;2023-05-10T07:27:04;4.50;;;1.75;;
80217;SDS011;69533;37.974;23.708;2023-05-10T07:29:29;3.97;;;1.73;;
80217;SDS011;69533;37.974;23.708;2023-05-10T07:31:55;2.38;;;1.58;;
80217;SDS011;69533;37.974;23.708;2023-05-10T07:34:21;4.07;;;1.92;;
80217;SDS011;69533;37.974;23.708;2023-05-10T07:36:47;3.83;;;1.88;;
80217;SDS011;69533;37.974;23.708;2023-05-10T07:39:13;3.90;;;1.90;;
80217;SDS011;69533;37.974;23.708;2023-05-10T07:41:39;1.90;;;1.70;;
80217;SDS011;69533;37.974;23.708;2023-05-10T07:44:05;3.47;;;1.70;;
80217;SDS011;69533;37.974;23.708;2023-05-10T07:46:31;2.55;;;1.50;;
80217;SDS011;69533;37.974;23.708;2023-05-10T07:48:57;5.22;;;1.70;;
80217;SDS011;69533;37.974;23.708;2023-05-10T07:51:23;5.40;;;2.05;;
80217;SDS011;69533;37.974;23.708;2023-05-10T07:53:48;3.60;;;2.13;;
80217;SDS011;69533;37.974;23.708;2023-05-10T07:56:21;3.83;;;2.50;;
80217;SDS011;69533;37.974;23.708;2023-05-10T07:58:54;2.75;;;1.95;;
80217;SDS011;69533;37.974;23.708;2023-05-10T08:01:20;4.75;;;1.75;;
80217;SDS011;69533;37.974;23.708;2023-05-10T08:03:47;3.30;;;1.70;;
80217;SDS011;69533;37.974;23.708;2023-05-10T08:06:14;6.15;;;2.08;;
80217;SDS011;69533;37.974;23.708;2023-05-10T08:08:40;2.33;;;1.90;;
80217;SDS011;69533;37.974;23.708;2023-05-10T08:11:06;5.43;;;1.88;;
80217;SDS011;69533;37.974;23.708;2023-05-10T08:13:32;5.40;;;2.50;;
80217;SDS011;69533;37.974;23.708;2023-05-10T08:15:58;2.65;;;1.75;;
80217;SDS011;69533;37.974;23.708;2023-05-10T08:18:24;4.20;;;2.05;;
80217;SDS011;69533;37.974;23.708;2023-05-10T08:20:50;2.67;;;1.92;;
80217;SDS011;69533;37.974;23.708;2023-05-10T08:23:16;3.55;;;2.28;;
80217;SDS011;69533;37.974;23.708;2023-05-10T08:25:41;3.40;;;2.20;;
80217;SDS011;69533;37.974;23.708;2023-05-10T08:28:07;3.75;;;1.90;;
80217;SDS011;69533;37.974;23.708;2023-05-10T08:30:33;4.28;;;1.80;;
80217;SDS011;69533;37.974;23.708;2023-05-10T08:32:58;4.20;;;2.20;;
80217;SDS011;69533;37.974;23.708;2023-05-10T08:35:24;2.83;;;1.90;;
80217;SDS011;69533;37.974;23.708;2023-05-10T08:37:50;4.72;;;1.88;;
80217;SDS011;69533;37.974;23.708;2023-05-10T08:40:16;4.85;;;2.10;;
80217;SDS011;69533;37.974;23.708;2023-05-10T08:42:49;3.67;;;2.08;;
80217;SDS011;69533;37.974;23.708;2023-05-10T08:45:22;2.97;;;2.20;;
80217;SDS011;69533;37.974;23.708;2023-05-10T08:47:48;3.03;;;1.80;;
80217;SDS011;69533;37.974;23.708;2023-05-10T08:50:16;3.42;;;1.90;;
80217;SDS011;69533;37.974;23.708;2023-05-10T08:52:45;3.50;;;1.95;;
80217;SDS011;69533;37.974;23.708;2023-05-10T08:55:13;5.15;;;1.83;;
80217;SDS011;69533;37.974;23.708;2023-05-10T08:57:40;5.15;;;1.95;;
80217;SDS011;69533;37.974;23.708;2023-05-10T09:00:06;1.48;;;1.38;;
80217;SDS011;69533;37.974;23.708;2023-05-10T09:02:33;3.22;;;1.80;;
80217;SDS011;69533;37.974;23.708;2023-05-10T09:05:01;4.60;;;1.80;;
80217;SDS011;69533;37.974;23.708;2023-05-10T09:07:29;2.40;;;1.60;;
80217;SDS011;69533;37.974;23.708;2023-05-10T09:09:55;3.83;;;2.10;;
80217;SDS011;69533;37.974;23.708;2023-05-10T09:12:22;3.03;;;1.90;;
80217;SDS011;69533;37.974;23.708;2023-05-10T09:14:48;4.40;;;2.05;;
80217;SDS011;69533;37.974;23.708;2023-05-10T09:17:16;2.28;;;1.73;;
80217;SDS011;69533;37.974;23.708;2023-05-10T09:19:42;2.03;;;1.63;;
80217;SDS011;69533;37.974;23.708;2023-05-10T09:22:09;3.95;;;1.67;;
80217;SDS011;69533;37.974;23.708;2023-05-10T09:24:35;3.58;;;1.92;;
80217;SDS011;69533;37.974;23.708;2023-05-10T09:27:01;4.07;;;2.13;;
80217;SDS011;69533;37.974;23.708;2023-05-10T09:29:38;4.70;;;1.70;;
80217;SDS011;69533;37.974;23.708;2023-05-10T09:32:07;1.92;;;1.65;;
80217;SDS011;69533;37.974;23.708;2023-05-10T09:34:33;2.10;;;1.50;;
80217;SDS011;69533;37.974;23.708;2023-05-10T09:37:01;3.70;;;1.67;;
80217;SDS011;69533;37.974;23.708;2023-05-10T09:39:32;3.58;;;2.03;;
80217;SDS011;69533;37.974;23.708;2023-05-10T09:41:59;5.22;;;1.77;;
80217;SDS011;69533;37.974;23.708;2023-05-10T09:44:28;3.15;;;1.77;;
80217;SDS011;69533;37.974;23.708;2023-05-10T09:46:54;4.47;;;1.65;;
80217;SDS011;69533;37.974;23.708;2023-05-10T09:49:21;3.70;;;1.88;;
80217;SDS011;69533;37.974;23.708;2023-05-10T09:51:47;2.92;;;1.70;;
80217;SDS011;69533;37.974;23.708;2023-05-10T09:54:22;3.83;;;1.52;;
80217;SDS011;69533;37.974;23.708;2023-05-10T09:56:49;2.92;;;1.65;;
80217;SDS011;69533;37.974;23.708;2023-05-10T09:59:14;2.33;;;1.80;;
80217;SDS011;69533;37.974;23.708;2023-05-10T10:01:42;4.32;;;1.58;;
80217;SDS011;69533;37.974;23.708;2023-05-10T10:04:15;3.00;;;1.60;;
80217;SDS011;69533;37.974;23.708;2023-05-10T10:06:41;2.75;;;1.70;;
80217;SDS011;69533;37.974;23.708;2023-05-10T10:09:07;3.20;;;1.40;;
80217;SDS011;69533;37.974;23.708;2023-05-10T10:11:37;3.97;;;1.50;;
80217;SDS011;69533;37.974;23.708;2023-05-10T10:14:04;3.72;;;1.70;;
80217;SDS011;69533;37.974;23.708;2023-05-10T10:16:30;2.30;;;1.58;;
80217;SDS011;69533;37.974;23.708;2023-05-10T10:18:57;4.25;;;1.60;;
80217;SDS011;69533;37.974;23.708;2023-05-10T10:21:23;4.60;;;2.08;;
80217;SDS011;69533;37.974;23.708;2023-05-10T10:23:50;2.85;;;1.65;;
80217;SDS011;69533;37.974;23.708;2023-05-10T10:26:17;2.55;;;1.45;;
80217;SDS011;69533;37.974;23.708;2023-05-10T10:28:51;3.38;;;1.50;;
80217;SDS011;69533;37.974;23.708;2023-05-10T10:31:39;3.13;;;1.67;;
80217;SDS011;69533;37.974;23.708;2023-05-10T10:34:10;3.08;;;1.45;;
80217;SDS011;69533;37.974;23.708;2023-05-10T10:36:45;3.15;;;1.48;;
80217;SDS011;69533;37.974;23.708;2023-05-10T10:39:12;2.88;;;1.67;;
80217;SDS011;69533;37.974;23.708;2023-05-10T10:41:50;2.00;;;1.38;;
80217;SDS011;69533;37.974;23.708;2023-05-10T10:44:40;6.63;;;1.85;;
80217;SDS011;69533;37.974;23.708;2023-05-10T10:52:24;2.50;;;1.63;;
80217;SDS011;69533;37.974;23.708;2023-05-10T11:00:50;2.90;;;1.42;;
80217;SDS011;69533;37.974;23.708;2023-05-10T11:08:10;2.20;;;1.50;;
80217;SDS011;69533;37.974;23.708;2023-05-10T11:10:54;4.32;;;2.08;;
80217;SDS011;69533;37.974;23.708;2023-05-10T11:13:42;3.28;;;1.60;;
80217;SDS011;69533;37.974;23.708;2023-05-10T11:16:24;3.38;;;1.45;;
80217;SDS011;69533;37.974;23.708;2023-05-10T11:21:23;3.10;;;1.65;;
80217;SDS011;69533;37.974;23.708;2023-05-10T11:23:50;2.05;;;1.48;;
80217;SDS011;69533;37.974;23.708;2023-05-10T11:26:21;2.70;;;1.45;;
80217;SDS011;69533;37.974;23.708;2023-05-10T11:28:50;2.55;;;1.70;;
80217;SDS011;69533;37.974;23.708;2023-05-10T11:31:17;3.10;;;1.83;;
80217;SDS011;69533;37.974;23.708;2023-05-10T11:33:50;3.08;;;1.73;;
80217;SDS011;69533;37.974;23.708;2023-05-10T11:36:19;3.35;;;1.75;;
80217;SDS011;69533;37.974;23.708;2023-05-10T11:38:46;6.40;;;2.08;;
80217;SDS011;69533;37.974;23.708;2023-05-10T11:41:13;2.88;;;1.80;;
80217;SDS011;69533;37.974;23.708;2023-05-10T11:43:50;3.90;;;1.70;;
80217;SDS011;69533;37.974;23.708;2023-05-10T11:46:26;1.48;;;1.35;;
80217;SDS011;69533;37.974;23.708;2023-05-10T11:48:56;3.47;;;1.80;;
80217;SDS011;69533;37.974;23.708;2023-05-10T11:51:26;2.00;;;1.52;;
80217;SDS011;69533;37.974;23.708;2023-05-10T11:53:52;2.17;;;1.77;;
80217;SDS011;69533;37.974;23.708;2023-05-10T11:56:19;6.40;;;1.95;;
80217;SDS011;69533;37.974;23.708;2023-05-10T11:58:51;3.85;;;1.65;;
80217;SDS011;69533;37.974;23.708;2023-05-10T12:01:21;3.22;;;2.22;;
80217;SDS011;69533;37.974;23.708;2023-05-10T12:03:49;5.45;;;1.80;;
80217;SDS011;69533;37.974;23.708;2023-05-10T12:06:15;3.85;;;1.63;;
80217;SDS011;69533;37.974;23.708;2023-05-10T12:08:46;4.88;;;1.92;;
80217;SDS011;69533;37.974;23.708;2023-05-10T12:11:13;5.63;;;2.10;;
80217;SDS011;69533;37.974;23.708;2023-05-10T12:13:40;2.47;;;2.00;;
80217;SDS011;69533;37.974;23.708;2023-05-10T12:18:42;2.72;;;1.60;;
80217;SDS011;69533;37.974;23.708;2023-05-10T12:21:11;2.85;;;1.60;;
80217;SDS011;69533;37.974;23.708;2023-05-10T12:23:38;3.20;;;1.70;;
80217;SDS011;69533;37.974;23.708;2023-05-10T12:26:04;2.58;;;1.65;;
80217;SDS011;69533;37.974;23.708;2023-05-10T12:28:31;1.85;;;1.55;;
80217;SDS011;69533;37.974;23.708;2023-05-10T12:30:59;2.25;;;1.70;;
80217;SDS011;69533;37.974;23.708;2023-05-10T12:33:25;3.78;;;2.03;;
80217;SDS011;69533;37.974;23.708;2023-05-10T12:35:54;2.90;;;1.80;;
80217;SDS011;69533;37.974;23.708;2023-05-10T12:38:25;3.28;;;2.35;;
80217;SDS011;69533;37.974;23.708;2023-05-10T12:40:54;4.00;;;1.95;;
80217;SDS011;69533;37.974;23.708;2023-05-10T12:43:20;3.63;;;1.60;;
80217;SDS011;69533;37.974;23.708;2023-05-10T12:45:46;2.42;;;1.90;;
80217;SDS011;69533;37.974;23.708;2023-05-10T12:48:14;3.25;;;1.60;;
80217;SDS011;69533;37.974;23.708;2023-05-10T12:50:40;1.80;;;1.58;;
80217;SDS011;69533;37.974;23.708;2023-05-10T12:53:05;2.40;;;1.65;;
80217;SDS011;69533;37.974;23.708;2023-05-10T12:55:31;3.58;;;1.90;;
80217;SDS011;69533;37.974;23.708;2023-05-10T12:57:57;2.88;;;1.75;;
80217;SDS011;69533;37.974;23.708;2023-05-10T13:00:23;3.30;;;1.42;;
80217;SDS011;69533;37.974;23.708;2023-05-10T13:02:48;2.08;;;1.58;;
80217;SDS011;69533;37.974;23.708;2023-05-10T13:05:14;1.85;;;1.58;;
80217;SDS011;69533;37.974;23.708;2023-05-10T13:07:40;3.30;;;1.63;;
80217;SDS011;69533;37.974;23.708;2023-05-10T13:10:06;2.47;;;1.30;;
80217;SDS011;69533;37.974;23.708;2023-05-10T13:12:32;3.45;;;1.75;;
80217;SDS011;69533;37.974;23.708;2023-05-10T13:14:58;3.17;;;1.92;;
80217;SDS011;69533;37.974;23.708;2023-05-10T13:17:24;3.35;;;1.75;;
80217;SDS011;69533;37.974;23.708;2023-05-10T13:19:51;2.45;;;1.92;;
80217;SDS011;69533;37.974;23.708;2023-05-10T13:22:16;3.33;;;1.63;;
80217;SDS011;69533;37.974;23.708;2023-05-10T13:24:42;2.70;;;1.70;;
80217;SDS011;69533;37.974;23.708;2023-05-10T13:27:08;2.60;;;1.60;;
80217;SDS011;69533;37.974;23.708;2023-05-10T13:29:34;3.38;;;1.70;;
80217;SDS011;69533;37.974;23.708;2023-05-10T13:31:59;2.03;;;1.52;;
80217;SDS011;69533;37.974;23.708;2023-05-10T13:34:26;2.65;;;1.75;;
80217;SDS011;69533;37.974;23.708;2023-05-10T13:36:51;5.38;;;1.70;;
80217;SDS011;69533;37.974;23.708;2023-05-10T13:39:18;4.32;;;2.35;;
80217;SDS011;69533;37.974;23.708;2023-05-10T13:41:45;1.75;;;1.33;;
80217;SDS011;69533;37.974;23.708;2023-05-10T13:44:14;2.85;;;1.70;;
80217;SDS011;69533;37.974;23.708;2023-05-10T13:46:41;3.78;;;1.98;;
80217;SDS011;69533;37.974;23.708;2023-05-10T13:49:10;2.63;;;1.52;;
80217;SDS011;69533;37.974;23.708;2023-05-10T13:51:35;3.90;;;2.53;;
80217;SDS011;69533;37.974;23.708;2023-05-10T13:54:01;5.03;;;3.35;;
80217;SDS011;69533;37.974;23.708;2023-05-10T13:56:28;7.47;;;5.47;;
80217;SDS011;69533;37.974;23.708;2023-05-10T13:58:53;12.15;;;8.35;;
80217;SDS011;69533;37.974;23.708;2023-05-10T14:01:22;20.05;;;15.25;;
80217;SDS011;69533;37.974;23.708;2023-05-10T14:03:48;23.85;;;16.50;;
80217;SDS011;69533;37.974;23.708;2023-05-10T14:06:13;24.88;;;18.15;;
80217;SDS011;69533;37.974;23.708;2023-05-10T14:08:39;25.85;;;19.30;;
80217;SDS011;69533;37.974;23.708;2023-05-10T14:11:05;26.58;;;19.92;;
80217;SDS011;69533;37.974;23.708;2023-05-10T14:13:31;28.73;;;21.67;;
80217;SDS011;69533;37.974;23.708;2023-05-10T14:15:57;27.92;;;23.05;;
80217;SDS011;69533;37.974;23.708;2023-05-10T14:18:25;31.88;;;22.35;;
80217;SDS011;69533;37.974;23.708;2023-05-10T14:20:54;23.95;;;18.15;;
80217;SDS011;69533;37.974;23.708;2023-05-10T14:23:21;19.17;;;15.63;;
80217;SDS011;69533;37.974;23.708;2023-05-10T14:25:49;21.40;;;15.90;;
80217;SDS011;69533;37.974;23.708;2023-05-10T14:28:16;19.33;;;13.07;;
80217;SDS011;69533;37.974;23.708;2023-05-10T14:30:43;15.63;;;12.63;;
80217;SDS011;69533;37.974;23.708;2023-05-10T14:33:09;15.98;;;12.40;;
80217;SDS011;69533;37.974;23.708;2023-05-10T14:35:35;13.85;;;10.63;;
80217;SDS011;69533;37.974;23.708;2023-05-10T14:38:04;12.15;;;8.73;;
80217;SDS011;69533;37.974;23.708;2023-05-10T14:40:30;11.02;;;8.30;;
80217;SDS011;69533;37.974;23.708;2023-05-10T14:42:56;9.68;;;7.40;;
80217;SDS011;69533;37.974;23.708;2023-05-10T14:45:22;9.85;;;6.78;;
80217;SDS011;69533;37.974;23.708;2023-05-10T14:47:48;7.50;;;5.90;;
80217;SDS011;69533;37.974;23.708;2023-05-10T14:50:15;9.00;;;5.40;;
80217;SDS011;69533;37.974;23.708;2023-05-10T14:52:41;8.48;;;5.68;;
80217;SDS011;69533;37.974;23.708;2023-05-10T14:55:07;7.72;;;4.90;;
80217;SDS011;69533;37.974;23.708;2023-05-10T14:57:33;5.35;;;4.45;;
80217;SDS011;69533;37.974;23.708;2023-05-10T14:59:59;6.47;;;3.83;;
80217;SDS011;69533;37.974;23.708;2023-05-10T15:02:25;6.05;;;4.30;;
80217;SDS011;69533;37.974;23.708;2023-05-10T15:04:50;6.82;;;3.70;;
80217;SDS011;69533;37.974;23.708;2023-05-10T15:07:18;6.07;;;3.70;;
80217;SDS011;69533;37.974;23.708;2023-05-10T15:09:46;4.55;;;3.35;;
80217;SDS011;69533;37.974;23.708;2023-05-10T15:12:12;5.10;;;3.50;;
80217;SDS011;69533;37.974;23.708;2023-05-10T15:14:38;4.20;;;3.00;;
80217;SDS011;69533;37.974;23.708;2023-05-10T15:17:05;7.07;;;3.47;;
80217;SDS011;69533;37.974;23.708;2023-05-10T15:19:31;5.65;;;3.60;;
80217;SDS011;69533;37.974;23.708;2023-05-10T15:21:58;5.40;;;3.85;;